Time;durP1;ratioP1;P1;durP2;ratioP2;P2;SDS_P1;SDS_P2;PMS_P1;PMS_P2;Temp;Humidity;BMP_temperature;BMP_pressure;BME280_temperature;BME280_humidity;BME280_pressure;Samples;Min_cycle;Max_cycle;Signal;HPM_P1;HPM_P2
2023/02/11 00:02:05;;;;;;;36.30;22.23;;;9.40;99.90;;;;;;5075298;28;20419;-78
2023/02/11 00:04:31;;;;;;;34.00;21.50;;;9.40;99.90;;;;;;5061324;28;20659;-78
2023/02/11 00:06:57;;;;;;;31.00;21.30;;;9.40;99.90;;;;;;5054219;28;20408;-79
2023/02/11 00:09:22;;;;;;;31.73;21.10;;;9.40;99.90;;;;;;5053744;28;20192;-79
2023/02/11 00:11:48;;;;;;;31.33;21.80;;;9.30;99.90;;;;;;5054598;28;20608;-79
2023/02/11 00:14:14;;;;;;;35.50;22.00;;;9.30;99.90;;;;;;5054980;28;20177;-78
2023/02/11 00:16:40;;;;;;;32.57;20.87;;;9.40;99.90;;;;;;5053049;28;20221;-78
2023/02/11 00:19:06;;;;;;;28.67;20.87;;;9.40;99.90;;;;;;5053812;28;20685;-79
2023/02/11 00:21:33;;;;;;;31.83;21.13;;;9.50;99.90;;;;;;5066954;28;20419;-78
2023/02/11 00:24:01;;;;;;;30.03;21.30;;;9.50;99.90;;;;;;5074913;28;20417;-79
2023/02/11 00:26:32;;;;;;;28.60;20.60;;;9.50;99.90;;;;;;5074253;28;20408;-72
2023/02/11 00:28:59;;;;;;;33.07;21.30;;;9.60;99.90;;;;;;5074801;28;20413;-78
2023/02/11 00:31:25;;;;;;;32.17;21.37;;;9.60;99.90;;;;;;5074787;28;20884;-77
2023/02/11 00:33:51;;;;;;;31.07;21.10;;;9.60;99.90;;;;;;5063806;28;20436;-77
2023/02/11 00:36:19;;;;;;;29.23;19.43;;;9.60;99.90;;;;;;5054126;28;20471;-78
2023/02/11 00:38:46;;;;;;;30.47;22.43;;;9.60;99.90;;;;;;5053900;28;20483;-78
2023/02/11 00:41:13;;;;;;;29.57;21.27;;;9.70;99.90;;;;;;5045435;28;20476;-78
2023/02/11 00:43:39;;;;;;;30.10;22.00;;;9.60;99.90;;;;;;5033684;28;20436;-77
2023/02/11 00:46:06;;;;;;;26.30;20.20;;;9.50;99.90;;;;;;5034793;28;20411;-78
2023/02/11 00:48:32;;;;;;;31.03;21.90;;;9.50;99.90;;;;;;5016403;28;20594;-77
2023/02/11 00:50:58;;;;;;;27.83;20.13;;;9.50;99.90;;;;;;5034394;28;20489;-78
2023/02/11 00:53:24;;;;;;;31.07;21.17;;;9.50;99.90;;;;;;5034686;28;20424;-77
2023/02/11 00:55:49;;;;;;;31.03;20.63;;;9.50;99.90;;;;;;5016379;28;20460;-77
2023/02/11 00:58:15;;;;;;;26.50;20.60;;;9.50;99.90;;;;;;5015792;28;20406;-77
2023/02/11 01:00:41;;;;;;;28.80;20.47;;;9.50;99.90;;;;;;5034119;28;20499;-77
2023/02/11 01:03:06;;;;;;;31.40;22.37;;;9.50;99.90;;;;;;5046799;28;20177;-78
2023/02/11 01:05:32;;;;;;;27.57;20.83;;;9.50;99.90;;;;;;5033725;28;20224;-78
2023/02/11 01:07:58;;;;;;;30.87;21.00;;;9.50;99.90;;;;;;5034236;28;20268;-78
2023/02/11 01:10:24;;;;;;;27.50;19.87;;;9.50;99.90;;;;;;5034344;28;20246;-78
2023/02/11 01:12:50;;;;;;;26.10;20.10;;;9.50;99.90;;;;;;5033424;28;20186;-78
2023/02/11 01:15:17;;;;;;;29.00;20.47;;;9.50;99.90;;;;;;5033703;28;20538;-77
2023/02/11 01:17:43;;;;;;;30.37;20.57;;;9.40;99.90;;;;;;5033542;28;20215;-78
2023/02/11 01:20:17;;;;;;;28.07;19.57;;;9.50;99.90;;;;;;5034029;28;20450;-78
2023/02/11 01:22:43;;;;;;;27.50;18.57;;;9.50;99.90;;;;;;5015957;28;20216;-78
2023/02/11 01:25:09;;;;;;;25.50;19.73;;;9.50;99.90;;;;;;5016287;28;20421;-78
2023/02/11 01:27:36;;;;;;;24.40;18.27;;;9.50;99.90;;;;;;5033430;28;20403;-78
2023/02/11 01:30:03;;;;;;;27.93;18.47;;;9.50;99.90;;;;;;5044980;28;20429;-79
2023/02/11 01:32:29;;;;;;;26.60;17.50;;;9.50;99.90;;;;;;5047689;28;20458;-78
2023/02/11 01:34:55;;;;;;;30.00;19.27;;;9.50;99.90;;;;;;5014974;28;20500;-78
2023/02/11 01:37:20;;;;;;;24.77;18.80;;;9.50;99.90;;;;;;5035913;28;20413;-79
2023/02/11 01:39:46;;;;;;;28.30;18.67;;;9.50;99.90;;;;;;5052932;28;20184;-78
2023/02/11 01:42:18;;;;;;;26.80;19.33;;;9.50;99.90;;;;;;5053701;28;20230;-78
2023/02/11 01:44:44;;;;;;;25.83;18.73;;;9.60;99.90;;;;;;5051697;28;20277;-78
2023/02/11 01:47:10;;;;;;;23.60;19.07;;;9.50;99.90;;;;;;5053448;28;20497;-78
2023/02/11 01:49:44;;;;;;;25.87;17.50;;;9.40;99.90;;;;;;5052559;28;20410;-78
2023/02/11 01:52:31;;;;;;;26.90;18.00;;;9.50;99.90;;;;;;5035667;28;20171;-78
2023/02/11 01:57:51;;;;;;;29.60;19.00;;;9.50;99.90;;;;;;5053274;28;20411;-78
2023/02/11 02:00:23;;;;;;;28.80;19.53;;;9.50;99.90;;;;;;5053554;28;20397;-78
2023/02/11 02:03:06;;;;;;;26.50;18.80;;;9.50;99.90;;;;;;5050200;28;20438;-78
2023/02/11 02:05:56;;;;;;;23.23;18.27;;;9.40;99.90;;;;;;5034814;28;20430;-73
2023/02/11 02:08:34;;;;;;;25.83;19.13;;;9.50;99.90;;;;;;5032595;28;20433;-78
2023/02/11 02:10:59;;;;;;;28.00;18.60;;;9.40;99.90;;;;;;5018771;28;20792;-77
2023/02/11 02:13:28;;;;;;;26.07;19.57;;;9.50;99.90;;;;;;5049581;28;20440;-76
2023/02/11 02:15:56;;;;;;;25.30;19.13;;;9.50;99.90;;;;;;5052376;28;20218;-77
2023/02/11 02:19:16;;;;;;;23.87;19.20;;;9.50;99.90;;;;;;5035075;28;20792;-78
2023/02/11 02:21:59;;;;;;;24.23;19.00;;;9.50;99.90;;;;;;5046635;28;20497;-77
2023/02/11 02:25:02;;;;;;;26.07;19.27;;;9.50;99.90;;;;;;5052809;28;20412;-78
2023/02/11 02:27:40;;;;;;;25.63;19.73;;;9.50;99.90;;;;;;5051817;28;20443;-78
2023/02/11 02:30:33;;;;;;;26.60;19.30;;;9.50;99.90;;;;;;5053040;28;20401;-78
2023/02/11 02:33:15;;;;;;;25.30;19.00;;;9.40;99.90;;;;;;5050808;28;20756;-75
2023/02/11 02:35:45;;;;;;;25.17;18.50;;;9.40;99.90;;;;;;5051309;28;20468;-78
2023/02/11 02:38:22;;;;;;;31.80;20.27;;;9.50;99.90;;;;;;5053228;28;20432;-79
2023/02/11 02:41:00;;;;;;;29.60;19.00;;;9.30;99.90;;;;;;5032042;28;20465;-78
2023/02/11 02:43:27;;;;;;;31.30;20.20;;;9.30;99.90;;;;;;5032797;28;20410;-79
2023/02/11 02:45:53;;;;;;;25.63;18.87;;;9.30;99.90;;;;;;4997818;28;20833;-79
2023/02/11 02:48:24;;;;;;;23.23;19.20;;;9.40;99.90;;;;;;5033063;28;20456;-78
2023/02/11 02:50:59;;;;;;;30.90;20.93;;;9.30;99.90;;;;;;5032383;28;20188;-78
2023/02/11 02:54:01;;;;;;;25.33;19.67;;;9.30;99.90;;;;;;5000228;28;20405;-77
2023/02/11 02:56:47;;;;;;;30.43;18.83;;;9.40;99.90;;;;;;5031149;28;20468;-78
2023/02/11 02:59:36;;;;;;;27.60;19.30;;;9.40;99.90;;;;;;5032757;28;20398;-78
2023/02/11 03:02:08;;;;;;;27.10;19.17;;;9.40;99.90;;;;;;5047613;28;20474;-78
2023/02/11 03:04:51;;;;;;;27.70;20.63;;;9.40;99.90;;;;;;5035004;28;20466;-78
2023/02/11 03:07:31;;;;;;;34.90;19.20;;;9.30;99.90;;;;;;5032689;28;20887;-78
2023/02/11 03:10:04;;;;;;;26.90;19.43;;;9.30;99.90;;;;;;5032133;28;20464;-78
2023/02/11 03:12:32;;;;;;;29.13;20.20;;;9.20;99.90;;;;;;5049735;28;20490;-78
2023/02/11 03:15:00;;;;;;;27.50;19.70;;;9.30;99.90;;;;;;5032535;28;20983;-78
2023/02/11 03:17:28;;;;;;;22.37;19.30;;;9.20;99.90;;;;;;5052485;28;20435;-77
2023/02/11 03:19:56;;;;;;;27.87;20.10;;;9.20;99.90;;;;;;5051286;28;20733;-77
2023/02/11 03:22:26;;;;;;;25.67;19.43;;;9.20;99.90;;;;;;5056527;28;20421;-79
2023/02/11 03:24:53;;;;;;;26.60;18.80;;;9.20;99.90;;;;;;5055760;28;20401;-77
2023/02/11 03:27:19;;;;;;;27.67;19.03;;;9.20;99.90;;;;;;5056262;28;20864;-78
2023/02/11 03:30:06;;;;;;;31.10;20.30;;;9.20;99.90;;;;;;5023386;28;20481;-77
2023/02/11 03:32:37;;;;;;;30.37;19.50;;;9.20;99.90;;;;;;5036002;28;20170;-77
2023/02/11 03:35:10;;;;;;;28.83;18.90;;;9.30;99.90;;;;;;5036079;28;22304;-78
2023/02/11 03:37:50;;;;;;;29.10;19.80;;;9.30;99.90;;;;;;5036005;28;20401;-78
2023/02/11 03:40:28;;;;;;;29.00;20.00;;;9.30;99.90;;;;;;5035223;28;20988;-79
2023/02/11 03:43:18;;;;;;;29.40;20.57;;;9.40;99.90;;;;;;5035286;28;20934;-78
2023/02/11 03:45:46;;;;;;;27.30;19.57;;;9.30;99.90;;;;;;5035657;28;20400;-78
2023/02/11 03:48:21;;;;;;;26.43;19.70;;;9.40;99.90;;;;;;5035952;28;20408;-78
2023/02/11 03:50:50;;;;;;;26.77;19.97;;;9.40;99.90;;;;;;5035303;28;20458;-78
2023/02/11 03:53:17;;;;;;;30.27;20.97;;;9.40;99.90;;;;;;5035964;28;20450;-78
2023/02/11 03:55:46;;;;;;;26.00;19.60;;;9.40;99.90;;;;;;5017455;28;20474;-78
2023/02/11 03:58:11;;;;;;;27.30;19.33;;;9.50;99.90;;;;;;5036151;28;20429;-79
2023/02/11 04:00:39;;;;;;;31.90;22.60;;;9.40;99.90;;;;;;5035578;28;20912;-78
2023/02/11 04:03:07;;;;;;;28.50;20.47;;;9.30;99.90;;;;;;5035934;28;20258;-78
2023/02/11 04:05:32;;;;;;;33.40;20.60;;;9.40;99.90;;;;;;5037055;28;20410;-78
2023/02/11 04:07:58;;;;;;;24.63;19.53;;;9.40;99.90;;;;;;5054808;28;20426;-79
2023/02/11 04:10:24;;;;;;;27.97;20.40;;;9.40;99.90;;;;;;5052963;28;20269;-78
2023/02/11 04:12:50;;;;;;;31.30;22.07;;;9.40;99.90;;;;;;5054265;28;20183;-79
2023/02/11 04:15:15;;;;;;;26.83;20.23;;;9.40;99.90;;;;;;5054661;28;20210;-79
2023/02/11 04:17:42;;;;;;;32.10;21.63;;;9.40;99.90;;;;;;5054691;28;20667;-73
2023/02/11 04:20:08;;;;;;;28.03;20.17;;;9.30;99.90;;;;;;5054275;28;20212;-79
2023/02/11 04:22:34;;;;;;;30.47;21.80;;;9.40;99.90;;;;;;5020541;28;20436;-78
2023/02/11 04:25:00;;;;;;;28.50;20.93;;;9.30;99.90;;;;;;5053258;28;20628;-79
2023/02/11 04:27:26;;;;;;;27.63;20.80;;;9.30;99.90;;;;;;5054740;28;20877;-80
2023/02/11 04:29:51;;;;;;;32.70;22.60;;;9.30;99.90;;;;;;5022496;28;20661;-79
2023/02/11 04:32:17;;;;;;;29.20;20.67;;;9.30;99.90;;;;;;5034367;28;20182;-80
2023/02/11 04:34:43;;;;;;;26.17;19.70;;;9.20;99.90;;;;;;5034416;28;20178;-72
2023/02/11 04:37:08;;;;;;;29.30;22.03;;;9.10;99.90;;;;;;5034344;28;20650;-79
2023/02/11 04:39:34;;;;;;;31.33;22.30;;;9.10;99.90;;;;;;5034315;28;20175;-78
2023/02/11 04:42:00;;;;;;;32.97;22.30;;;9.10;99.90;;;;;;5033567;28;20314;-78
2023/02/11 04:44:25;;;;;;;30.90;21.03;;;9.20;99.90;;;;;;5016352;28;20685;-78
2023/02/11 04:46:52;;;;;;;33.30;22.40;;;9.10;99.90;;;;;;5049379;28;20219;-78
2023/02/11 04:49:17;;;;;;;31.53;21.77;;;9.10;99.90;;;;;;5054223;28;20208;-78
2023/02/11 04:51:46;;;;;;;28.70;21.13;;;9.10;99.90;;;;;;5051502;28;20912;-72
2023/02/11 04:54:12;;;;;;;30.63;20.70;;;9.10;99.90;;;;;;5036393;28;20559;-78
2023/02/11 04:56:38;;;;;;;31.27;21.03;;;9.10;99.90;;;;;;5053891;28;20539;-78
2023/02/11 04:59:04;;;;;;;30.43;22.03;;;9.10;99.90;;;;;;5046867;28;20421;-77
2023/02/11 05:01:30;;;;;;;28.27;21.27;;;9.20;99.90;;;;;;5025188;28;20519;-79
2023/02/11 05:03:56;;;;;;;29.77;21.97;;;9.10;99.90;;;;;;5020986;28;20508;-78
2023/02/11 05:06:22;;;;;;;31.00;22.03;;;9.20;99.90;;;;;;5036062;28;20463;-79
2023/02/11 05:08:48;;;;;;;31.73;21.07;;;9.20;99.90;;;;;;5051825;28;20448;-78
2023/02/11 05:11:20;;;;;;;31.93;22.63;;;9.00;99.90;;;;;;5053756;28;20441;-79
2023/02/11 05:13:46;;;;;;;35.53;23.67;;;9.00;99.90;;;;;;5050682;28;20484;-73
2023/02/11 05:16:13;;;;;;;32.63;21.30;;;9.00;99.90;;;;;;5033791;28;20517;-80
2023/02/11 05:18:41;;;;;;;32.83;21.50;;;9.00;99.90;;;;;;5033246;28;20431;-79
2023/02/11 05:21:18;;;;;;;38.00;22.00;;;9.00;99.90;;;;;;5032732;28;20647;-79
2023/02/11 05:23:44;;;;;;;33.73;21.60;;;9.00;99.90;;;;;;5015831;28;20542;-74
2023/02/11 05:26:11;;;;;;;32.00;21.03;;;9.00;99.90;;;;;;5015157;28;20922;-79
2023/02/11 05:28:37;;;;;;;34.70;22.57;;;9.10;99.90;;;;;;5033053;28;20460;-78
2023/02/11 05:31:03;;;;;;;29.10;21.90;;;9.00;99.90;;;;;;5032248;28;20428;-78
2023/02/11 05:33:29;;;;;;;29.60;21.40;;;9.00;99.90;;;;;;5015864;28;20413;-79
2023/02/11 05:36:04;;;;;;;28.37;21.17;;;9.10;99.90;;;;;;5032521;28;20553;-77
2023/02/11 05:38:30;;;;;;;28.10;19.73;;;9.10;99.90;;;;;;5033315;28;20182;-78
2023/02/11 05:40:56;;;;;;;28.30;21.43;;;9.00;99.90;;;;;;5038352;28;20473;-73
2023/02/11 05:43:22;;;;;;;30.53;20.73;;;9.00;99.90;;;;;;5052405;28;20631;-73
2023/02/11 05:45:48;;;;;;;27.43;20.60;;;9.10;99.90;;;;;;5051305;28;20189;-74
2023/02/11 05:48:13;;;;;;;31.33;22.10;;;9.10;99.90;;;;;;5052330;28;20463;-74
2023/02/11 05:50:39;;;;;;;28.80;21.60;;;9.10;99.90;;;;;;5052764;28;20173;-74
2023/02/11 05:53:05;;;;;;;26.87;19.53;;;9.10;99.90;;;;;;5051933;28;21294;-74
2023/02/11 05:55:31;;;;;;;31.10;20.87;;;9.20;99.90;;;;;;5052430;28;20444;-74
2023/02/11 05:57:57;;;;;;;28.37;20.50;;;9.00;99.90;;;;;;5051853;28;20425;-74
2023/02/11 06:00:23;;;;;;;29.50;20.80;;;9.00;99.90;;;;;;5015165;28;20913;-74
2023/02/11 06:02:49;;;;;;;29.17;20.00;;;9.00;99.90;;;;;;5052023;28;20210;-74
2023/02/11 06:05:15;;;;;;;27.13;20.67;;;9.00;99.90;;;;;;5052261;28;20417;-74
2023/02/11 06:07:40;;;;;;;25.27;19.70;;;9.00;99.90;;;;;;5033913;28;20173;-74
2023/02/11 06:10:07;;;;;;;28.10;20.47;;;9.00;99.90;;;;;;5051611;28;20546;-74
2023/02/11 06:12:33;;;;;;;24.93;19.93;;;9.00;99.90;;;;;;5052400;28;20189;-74
2023/02/11 06:14:58;;;;;;;27.47;20.97;;;9.00;99.90;;;;;;5050203;28;20462;-74
2023/02/11 06:17:24;;;;;;;30.93;21.63;;;9.10;99.90;;;;;;5052469;28;20753;-74
2023/02/11 06:19:50;;;;;;;33.30;21.63;;;9.10;99.90;;;;;;5051832;28;20200;-74
2023/02/11 06:22:16;;;;;;;31.00;20.83;;;9.00;99.90;;;;;;5033216;28;20189;-74
2023/02/11 06:24:41;;;;;;;30.03;20.87;;;9.10;99.90;;;;;;4998337;28;20645;-74
2023/02/11 06:27:07;;;;;;;26.27;20.50;;;9.20;99.90;;;;;;5031470;28;20437;-74
2023/02/11 06:29:33;;;;;;;28.67;21.20;;;9.10;99.90;;;;;;5031116;28;20643;-74
2023/02/11 06:31:59;;;;;;;29.90;20.80;;;9.10;99.90;;;;;;5031885;28;20670;-74
2023/02/11 06:34:25;;;;;;;27.03;19.27;;;9.10;99.90;;;;;;5016303;28;21002;-74
2023/02/11 06:36:50;;;;;;;29.57;21.90;;;9.20;99.90;;;;;;5051283;28;20455;-74
2023/02/11 06:39:16;;;;;;;26.10;20.77;;;9.10;99.90;;;;;;5051917;28;20174;-74
2023/02/11 06:41:42;;;;;;;29.03;21.10;;;9.30;99.90;;;;;;5050017;28;20225;-74
2023/02/11 06:44:07;;;;;;;23.27;19.10;;;9.20;99.90;;;;;;5051221;28;20595;-74
2023/02/11 06:46:33;;;;;;;25.23;20.10;;;9.30;99.90;;;;;;5050099;28;20190;-73
2023/02/11 06:48:59;;;;;;;27.20;19.67;;;9.20;99.90;;;;;;5051469;28;20178;-74
2023/02/11 06:51:24;;;;;;;25.93;20.60;;;9.20;99.90;;;;;;5050748;28;20319;-73
2023/02/11 06:53:50;;;;;;;26.87;19.87;;;9.20;99.90;;;;;;5051748;28;20548;-73
2023/02/11 06:56:21;;;;;;;27.13;20.13;;;9.20;99.90;;;;;;5037669;28;20216;-73
2023/02/11 06:58:47;;;;;;;26.23;19.37;;;9.20;99.90;;;;;;5046469;28;20460;-73
2023/02/11 07:01:15;;;;;;;24.57;18.63;;;9.20;99.90;;;;;;5045626;28;20476;-74
2023/02/11 07:03:42;;;;;;;28.17;19.47;;;9.20;99.90;;;;;;5036472;28;20490;-74
2023/02/11 07:06:12;;;;;;;23.53;17.40;;;9.20;99.90;;;;;;5050382;28;20512;-74
2023/02/11 07:08:38;;;;;;;27.90;19.17;;;9.30;99.90;;;;;;5037981;28;20412;-74
2023/02/11 07:11:13;;;;;;;28.30;19.70;;;9.20;99.90;;;;;;5050277;28;20439;-75
2023/02/11 07:13:39;;;;;;;25.40;19.07;;;9.20;99.90;;;;;;5054726;28;20442;-76
2023/02/11 07:16:07;;;;;;;31.07;19.53;;;9.20;99.90;;;;;;5042214;28;20472;-75
2023/02/11 07:18:33;;;;;;;26.30;20.13;;;9.20;99.90;;;;;;5051413;28;20185;-75
2023/02/11 07:20:59;;;;;;;25.63;18.80;;;9.30;99.90;;;;;;5036172;28;20504;-75
2023/02/11 07:23:24;;;;;;;27.00;18.47;;;9.30;99.90;;;;;;5054857;28;20204;-75
2023/02/11 07:25:50;;;;;;;28.20;18.30;;;9.30;99.90;;;;;;5055536;28;20877;-76
2023/02/11 07:28:16;;;;;;;24.00;17.33;;;9.40;99.90;;;;;;5053393;28;20181;-75
2023/02/11 07:30:41;;;;;;;28.17;19.37;;;9.40;99.90;;;;;;5055525;28;20182;-75
2023/02/11 07:33:07;;;;;;;24.40;18.23;;;9.40;99.90;;;;;;5046452;28;20270;-74
2023/02/11 07:35:32;;;;;;;23.20;19.67;;;9.40;99.90;;;;;;5036752;28;20600;-80
2023/02/11 07:37:58;;;;;;;27.30;20.73;;;9.70;99.90;;;;;;5053098;28;20274;-81
2023/02/11 07:40:24;;;;;;;24.73;19.50;;;10.20;99.90;;;;;;5025497;28;20174;-79
2023/02/11 07:42:50;;;;;;;26.50;18.10;;;10.70;99.90;;;;;;5037781;28;20187;-81
2023/02/11 07:45:16;;;;;;;24.40;18.37;;;11.10;99.90;;;;;;5031003;28;20182;-83
2023/02/11 07:47:41;;;;;;;27.83;18.80;;;11.50;99.90;;;;;;5044929;28;20543;-77
2023/02/11 07:50:08;;;;;;;27.43;20.70;;;11.80;99.90;;;;;;5038678;28;20424;-74
2023/02/11 07:52:34;;;;;;;26.30;19.80;;;12.10;99.90;;;;;;5017484;28;20261;-74
2023/02/11 07:55:00;;;;;;;25.67;18.43;;;12.40;99.90;;;;;;5034633;28;20489;-75
2023/02/11 07:57:26;;;;;;;28.20;20.40;;;12.60;99.90;;;;;;5022713;28;20190;-79
2023/02/11 07:59:52;;;;;;;24.57;18.10;;;12.70;99.90;;;;;;5043020;28;20178;-80
2023/02/11 08:02:17;;;;;;;22.57;17.53;;;12.90;99.90;;;;;;5041261;28;20474;-79
2023/02/11 08:04:45;;;;;;;26.47;20.37;;;13.10;99.90;;;;;;5049294;28;20434;-79
2023/02/11 08:07:15;;;;;;;28.97;19.17;;;13.30;99.90;;;;;;5043598;28;20240;-80
2023/02/11 08:09:41;;;;;;;29.37;19.67;;;13.50;99.90;;;;;;5050851;28;20902;-80
2023/02/11 08:12:06;;;;;;;26.27;19.87;;;13.70;99.90;;;;;;5039792;28;20433;-77
2023/02/11 08:14:32;;;;;;;26.03;19.87;;;13.80;99.90;;;;;;5017319;28;20451;-76
2023/02/11 08:16:58;;;;;;;31.53;22.47;;;13.80;99.90;;;;;;5034109;28;20211;-75
2023/02/11 08:19:23;;;;;;;32.57;21.00;;;13.90;99.90;;;;;;5000891;28;20184;-75
2023/02/11 08:21:49;;;;;;;27.07;20.07;;;14.00;99.90;;;;;;5017375;28;20185;-75
2023/02/11 08:24:15;;;;;;;33.23;20.27;;;14.20;99.90;;;;;;5039594;28;20652;-76
2023/02/11 08:26:41;;;;;;;29.50;21.40;;;14.20;99.90;;;;;;5046764;28;20880;-75
2023/02/11 08:29:10;;;;;;;28.37;20.63;;;14.20;99.90;;;;;;5050183;28;20525;-78
2023/02/11 08:31:39;;;;;;;31.10;21.50;;;14.30;99.90;;;;;;5053282;28;20541;-76
2023/02/11 08:34:05;;;;;;;29.83;22.00;;;14.30;99.90;;;;;;5043013;28;20419;-77
2023/02/11 08:36:34;;;;;;;30.07;21.30;;;14.50;99.90;;;;;;5054299;28;20464;-77
2023/02/11 08:39:03;;;;;;;28.60;21.00;;;14.50;99.90;;;;;;5053750;28;20818;-77
2023/02/11 08:41:30;;;;;;;90.10;60.33;;;14.60;99.90;;;;;;5046351;28;20501;-74
2023/02/11 08:43:56;;;;;;;184.20;107.43;;;14.60;99.90;;;;;;5016421;28;20424;-73
2023/02/11 08:46:21;;;;;;;43.30;29.50;;;14.60;99.90;;;;;;5034672;28;20904;-75
2023/02/11 08:48:47;;;;;;;31.37;23.53;;;14.60;99.90;;;;;;5016903;28;20418;-80
2023/02/11 08:51:18;;;;;;;35.43;23.23;;;14.60;99.90;;;;;;5034072;28;20196;-79
2023/02/11 08:53:45;;;;;;;30.70;22.23;;;14.60;99.90;;;;;;5034586;28;20182;-79
2023/02/11 08:56:13;;;;;;;30.73;21.00;;;14.60;99.90;;;;;;5033422;28;20481;-80
2023/02/11 08:58:40;;;;;;;32.20;22.00;;;14.70;99.90;;;;;;5034640;28;20420;-78
2023/02/11 09:01:26;;;;;;;32.17;22.00;;;14.70;99.90;;;;;;5033608;28;20413;-79
2023/02/11 09:03:52;;;;;;;31.07;21.57;;;14.80;99.90;;;;;;5034225;28;20491;-80
2023/02/11 09:06:19;;;;;;;33.33;22.40;;;14.90;99.90;;;;;;5018680;28;20502;-72
2023/02/11 09:08:50;;;;;;;32.77;22.53;;;14.90;99.20;;;;;;5038412;28;20426;-72
2023/02/11 09:11:18;;;;;;;32.53;21.63;;;14.60;97.80;;;;;;5050869;28;20523;-71
2023/02/11 09:13:44;;;;;;;30.67;21.73;;;14.20;98.10;;;;;;5049508;28;20441;-71
2023/02/11 09:16:20;;;;;;;33.90;21.83;;;13.80;99.30;;;;;;5052835;28;20530;-71
2023/02/11 09:18:46;;;;;;;30.13;22.13;;;13.40;99.90;;;;;;5052773;28;20404;-71
2023/02/11 09:21:13;;;;;;;36.90;23.27;;;13.00;99.90;;;;;;5053082;28;20488;-71
2023/02/11 09:23:42;;;;;;;33.17;22.30;;;12.50;99.90;;;;;;5049729;28;20439;-71
2023/02/11 09:26:11;;;;;;;37.77;23.50;;;12.20;99.90;;;;;;5014964;28;20428;-71
2023/02/11 09:28:37;;;;;;;36.77;24.30;;;12.00;99.90;;;;;;5047441;28;20431;-71
2023/02/11 09:31:07;;;;;;;41.80;24.83;;;11.60;99.90;;;;;;5044345;28;20767;-73
2023/02/11 09:33:34;;;;;;;38.37;24.73;;;11.40;99.90;;;;;;5040601;28;20172;-71
2023/02/11 09:36:01;;;;;;;41.87;25.87;;;11.10;99.90;;;;;;5041230;28;20449;-73
2023/02/11 09:38:27;;;;;;;38.00;22.10;;;11.00;99.90;;;;;;5042970;28;20481;-72
2023/02/11 09:40:53;;;;;;;39.83;24.20;;;10.90;99.90;;;;;;5042675;28;20454;-72
2023/02/11 09:43:23;;;;;;;39.87;23.73;;;10.80;99.90;;;;;;5024613;28;20369;-72
2023/02/11 09:45:49;;;;;;;39.20;23.40;;;10.70;99.90;;;;;;5042208;28;20173;-73
2023/02/11 09:48:20;;;;;;;37.80;22.93;;;10.50;99.90;;;;;;5042340;28;20486;-72
2023/02/11 09:50:50;;;;;;;39.73;24.17;;;10.50;99.90;;;;;;5043600;28;20416;-73
2023/02/11 09:53:29;;;;;;;38.20;23.27;;;10.40;99.90;;;;;;5041595;28;20749;-72
2023/02/11 09:55:59;;;;;;;32.83;22.07;;;10.40;99.90;;;;;;5026957;28;20810;-72
2023/02/11 09:58:46;;;;;;;39.47;22.83;;;10.40;99.90;;;;;;5052966;28;20409;-73
2023/02/11 10:01:20;;;;;;;39.07;24.97;;;10.30;99.90;;;;;;5034623;28;20421;-72
2023/02/11 10:03:52;;;;;;;41.83;24.00;;;10.20;99.90;;;;;;5052724;28;20402;-71
2023/02/11 10:06:37;;;;;;;40.83;24.70;;;10.20;99.90;;;;;;5051700;28;20474;-72
2023/02/11 10:09:40;;;;;;;42.17;23.60;;;10.20;99.90;;;;;;5051774;28;20440;-71
2023/02/11 10:12:40;;;;;;;38.87;24.20;;;10.20;99.90;;;;;;5051957;28;20458;-71
2023/02/11 10:15:25;;;;;;;39.83;23.47;;;10.20;99.90;;;;;;5036222;28;20966;-71
2023/02/11 10:18:06;;;;;;;48.00;25.60;;;10.10;99.90;;;;;;5035422;28;20442;-71
2023/02/11 10:20:54;;;;;;;44.20;24.90;;;10.10;99.90;;;;;;5015061;28;20813;-71
2023/02/11 10:23:27;;;;;;;39.83;23.70;;;10.00;99.90;;;;;;5014459;28;20485;-72
2023/02/11 10:25:56;;;;;;;43.67;24.73;;;10.00;99.90;;;;;;5032887;28;20401;-72
2023/02/11 10:28:28;;;;;;;44.20;25.97;;;10.00;99.90;;;;;;5031834;28;20656;-72
2023/02/11 10:30:59;;;;;;;43.20;25.03;;;9.90;99.90;;;;;;5032484;28;20391;-72
2023/02/11 10:33:42;;;;;;;43.53;24.83;;;10.00;99.90;;;;;;5031774;28;20408;-72
2023/02/11 10:36:11;;;;;;;42.77;22.97;;;9.90;99.90;;;;;;5014064;28;20501;-73
2023/02/11 10:38:37;;;;;;;46.60;25.30;;;9.90;99.90;;;;;;5032655;28;20472;-72
2023/02/11 10:41:03;;;;;;;35.10;23.50;;;9.90;99.90;;;;;;5031836;28;20541;-73
2023/02/11 10:43:31;;;;;;;38.80;23.57;;;10.00;99.90;;;;;;5032278;28;20912;-73
2023/02/11 10:45:59;;;;;;;34.90;22.07;;;10.00;99.90;;;;;;5014596;28;20436;-72
2023/02/11 10:48:45;;;;;;;39.50;24.30;;;10.00;99.90;;;;;;5031910;28;20427;-73
2023/02/11 10:51:34;;;;;;;37.23;24.30;;;10.00;99.90;;;;;;5031994;28;20412;-73
2023/02/11 10:54:07;;;;;;;40.40;24.77;;;10.00;99.90;;;;;;5032498;28;20401;-72
2023/02/11 10:56:38;;;;;;;47.23;24.97;;;10.10;99.90;;;;;;5035378;28;20497;-72
2023/02/11 10:59:14;;;;;;;39.50;23.50;;;10.00;99.90;;;;;;5014276;28;20413;-73
2023/02/11 11:01:49;;;;;;;398.73;233.57;;;10.00;99.90;;;;;;5051256;28;20414;-79
2023/02/11 11:04:43;;;;;;;77.33;46.13;;;10.00;99.90;;;;;;5027508;28;20483;-72
2023/02/11 11:07:14;;;;;;;40.20;23.90;;;10.00;99.90;;;;;;5028789;28;20422;-73
2023/02/11 11:10:07;;;;;;;45.50;25.33;;;10.00;99.90;;;;;;5032142;28;20766;-77
2023/02/11 11:12:45;;;;;;;41.97;25.13;;;10.00;99.90;;;;;;5032259;28;20870;-73
2023/02/11 11:15:17;;;;;;;38.63;24.97;;;10.00;99.90;;;;;;5051542;28;20400;-73
2023/02/11 11:17:44;;;;;;;40.37;25.00;;;10.00;99.90;;;;;;5032172;28;20524;-72
2023/02/11 11:20:26;;;;;;;39.90;23.73;;;10.00;99.90;;;;;;5051447;28;20408;-73
2023/02/11 11:23:12;;;;;;;39.70;24.83;;;10.00;99.90;;;;;;5052295;28;20450;-73
2023/02/11 11:25:40;;;;;;;37.77;24.10;;;10.00;99.90;;;;;;5042941;28;20898;-73
2023/02/11 11:28:19;;;;;;;39.90;23.20;;;10.10;99.90;;;;;;5042759;28;20465;-74
2023/02/11 11:30:45;;;;;;;38.47;24.80;;;10.10;99.90;;;;;;5050940;28;20424;-73
2023/02/11 11:33:21;;;;;;;40.00;25.30;;;10.10;99.90;;;;;;5033662;28;20418;-73
2023/02/11 11:36:07;;;;;;;39.23;24.20;;;10.10;99.90;;;;;;5052294;28;20189;-73
2023/02/11 11:38:36;;;;;;;43.20;24.90;;;10.00;99.90;;;;;;5052078;28;20401;-73
2023/02/11 11:41:26;;;;;;;37.93;24.63;;;10.10;99.90;;;;;;5052250;28;20818;-71
2023/02/11 11:44:19;;;;;;;37.37;24.63;;;10.10;99.90;;;;;;5055465;28;20420;-71
2023/02/11 11:46:46;;;;;;;39.77;24.47;;;10.10;99.90;;;;;;5054774;28;20433;-72
2023/02/11 11:49:12;;;;;;;43.70;25.30;;;10.10;99.90;;;;;;5054768;28;20464;-72
2023/02/11 11:51:40;;;;;;;43.20;24.90;;;10.10;99.90;;;;;;5037483;28;20424;-72
2023/02/11 11:54:11;;;;;;;42.60;24.40;;;10.10;99.90;;;;;;5033033;28;20204;-72
2023/02/11 11:56:53;;;;;;;43.00;26.03;;;10.10;99.90;;;;;;5053401;28;20473;-72
2023/02/11 11:59:20;;;;;;;49.83;26.40;;;10.10;99.90;;;;;;5054858;28;20432;-72
2023/02/11 12:02:39;;;;;;;44.23;25.40;;;10.10;99.90;;;;;;5055242;28;20408;-72
2023/02/11 12:05:05;;;;;;;37.60;23.43;;;10.10;99.90;;;;;;4939073;29;20467;-72
2023/02/11 12:07:44;;;;;;;47.90;24.57;;;10.10;99.90;;;;;;5027760;28;20483;-72
2023/02/11 12:10:21;;;;;;;45.70;24.70;;;10.10;99.90;;;;;;5034343;28;20180;-72
2023/02/11 12:13:19;;;;;;;42.20;25.50;;;10.10;99.90;;;;;;5017529;28;20568;-72
2023/02/11 12:15:56;;;;;;;39.73;24.43;;;10.10;99.90;;;;;;5035062;28;20447;-72
2023/02/11 12:18:39;;;;;;;45.23;24.97;;;10.10;99.90;;;;;;5033810;28;20428;-72
2023/02/11 12:21:23;;;;;;;44.70;25.47;;;10.10;99.90;;;;;;5040948;28;20764;-72
2023/02/11 12:23:55;;;;;;;37.57;23.97;;;10.10;99.90;;;;;;5037170;28;20444;-72
2023/02/11 12:26:42;;;;;;;46.00;25.73;;;10.10;99.90;;;;;;5052196;28;20440;-72
2023/02/11 12:29:40;;;;;;;48.30;26.57;;;10.10;99.90;;;;;;5054866;28;20400;-72
2023/02/11 12:32:20;;;;;;;43.80;26.13;;;10.10;99.90;;;;;;5036904;28;20411;-72
2023/02/11 12:34:49;;;;;;;46.60;26.07;;;10.10;99.90;;;;;;5054362;28;20443;-72
2023/02/11 12:37:32;;;;;;;44.33;25.63;;;10.10;99.90;;;;;;5029459;28;20486;-73
2023/02/11 12:40:22;;;;;;;52.70;24.77;;;10.10;99.90;;;;;;5024221;28;20465;-72
2023/02/11 12:43:15;;;;;;;47.87;26.50;;;10.10;99.90;;;;;;5034566;28;20433;-72
2023/02/11 12:46:02;;;;;;;45.00;26.20;;;10.20;99.90;;;;;;5021992;28;20445;-72
2023/02/11 12:48:38;;;;;;;53.20;27.97;;;10.20;99.90;;;;;;5016163;28;20778;-72
2023/02/11 12:51:33;;;;;;;48.17;26.83;;;10.20;99.90;;;;;;5034451;28;20426;-72
2023/02/11 12:54:19;;;;;;;42.20;26.03;;;10.20;99.90;;;;;;5034380;28;20414;-72
2023/02/11 12:57:12;;;;;;;47.47;27.37;;;10.20;99.90;;;;;;5044066;28;20933;-73